createdAt,value
2017-11-07T00:00:12.440Z,7.10
2017-11-07T00:05:15.020Z,7.10
2017-11-07T00:10:17.576Z,7.10
2017-11-07T00:15:20.126Z,7.10
2017-11-07T00:20:22.708Z,7.10
2017-11-07T00:25:25.272Z,7.10
2017-11-07T00:30:27.842Z,7.10
2017-11-07T00:35:31.151Z,7.10
2017-11-07T00:40:33.705Z,7.10
2017-11-07T00:45:36.265Z,7.10
2017-11-07T00:50:38.822Z,7.10
2017-11-07T00:55:41.385Z,7.10
2017-11-07T01:00:43.936Z,7.10
2017-11-07T01:05:46.485Z,7.10
2017-11-07T01:10:49.052Z,7.10
2017-11-07T01:15:51.611Z,7.10
2017-11-07T01:20:54.928Z,7.10
2017-11-07T01:25:58.260Z,7.10
2017-11-07T01:31:00.873Z,7.10
2017-11-07T01:36:03.430Z,7.10
2017-11-07T01:41:06.781Z,7.10
2017-11-07T01:46:09.323Z,7.10
2017-11-07T01:51:11.912Z,7.10
2017-11-07T01:56:14.478Z,7.20
2017-11-07T02:01:17.024Z,7.10
2017-11-07T02:06:19.575Z,7.10
2017-11-07T02:11:22.146Z,7.20
2017-11-07T02:16:24.690Z,7.20
2017-11-07T02:21:27.284Z,7.20
2017-11-07T02:26:29.831Z,7.20
2017-11-07T02:31:32.398Z,7.20
2017-11-07T02:36:34.955Z,7.20
2017-11-07T02:41:37.536Z,7.20
2017-11-07T02:46:40.164Z,7.20
2017-11-07T02:51:43.471Z,7.20
2017-11-07T02:56:46.787Z,7.20
2017-11-07T03:01:50.134Z,7.20
2017-11-07T03:06:53.448Z,7.20
2017-11-07T03:11:55.979Z,7.20
2017-11-07T03:16:58.516Z,7.20
2017-11-07T03:22:01.829Z,7.20
2017-11-07T03:27:04.396Z,7.20
2017-11-07T03:32:06.954Z,7.20
2017-11-07T03:37:09.499Z,7.20
2017-11-07T03:42:12.047Z,7.20
2017-11-07T03:47:15.371Z,7.20
2017-11-07T03:52:17.929Z,7.20
2017-11-07T03:57:20.489Z,7.20
2017-11-07T04:02:23.067Z,7.20
2017-11-07T04:07:25.653Z,7.20
2017-11-07T04:12:28.245Z,7.20
2017-11-07T04:17:30.800Z,7.20
2017-11-07T04:22:33.346Z,7.20
2017-11-07T04:27:35.911Z,7.20
2017-11-07T04:32:38.480Z,7.20
2017-11-07T04:37:41.037Z,7.20
2017-11-07T04:42:44.394Z,7.30
2017-11-07T04:47:47.168Z,7.30
2017-11-07T04:52:49.721Z,7.30
2017-11-07T04:57:52.296Z,7.30
2017-11-07T05:02:55.177Z,7.30
2017-11-07T05:07:57.775Z,7.30
2017-11-07T05:13:00.321Z,7.30
2017-11-07T05:18:02.876Z,7.30
2017-11-07T05:23:05.416Z,7.30
2017-11-07T05:28:07.974Z,7.30
2017-11-07T05:33:10.528Z,7.30
2017-11-07T05:38:13.077Z,7.30
2017-11-07T05:43:16.421Z,7.30
2017-11-07T05:48:19.019Z,7.30
2017-11-07T05:53:21.576Z,7.30
2017-11-07T05:58:24.127Z,7.30
2017-11-07T06:03:26.681Z,7.30
2017-11-07T06:08:29.235Z,7.30
2017-11-07T06:13:32.040Z,7.30
2017-11-07T06:18:34.631Z,7.30
2017-11-07T06:23:37.183Z,7.30
2017-11-07T06:28:39.731Z,7.30
2017-11-07T06:33:42.277Z,7.30
2017-11-07T06:38:44.840Z,7.30
2017-11-07T06:43:47.379Z,7.30
2017-11-07T06:48:49.948Z,7.30
2017-11-07T06:53:52.504Z,7.30
2017-11-07T06:58:55.056Z,7.30
2017-11-07T07:03:57.631Z,7.30
2017-11-07T07:09:00.212Z,7.30
2017-11-07T07:14:02.755Z,7.30
2017-11-07T07:19:06.085Z,7.40
2017-11-07T07:24:08.677Z,7.40
2017-11-07T07:29:11.231Z,7.40
2017-11-07T07:34:13.796Z,7.40
2017-11-07T07:39:16.356Z,7.50
2017-11-07T07:44:18.928Z,7.50
2017-11-07T07:49:21.529Z,7.60
2017-11-07T07:54:24.103Z,7.60
2017-11-07T07:59:26.709Z,7.70
2017-11-07T08:04:29.302Z,7.80
2017-11-07T08:09:31.855Z,7.90
2017-11-07T08:14:35.143Z,8.00
2017-11-07T08:19:37.719Z,8.10
2017-11-07T08:24:40.274Z,8.20
2017-11-07T08:29:42.843Z,8.30
2017-11-07T08:34:45.417Z,8.40
2017-11-07T08:39:48.751Z,8.60
2017-11-07T08:44:52.084Z,8.70
2017-11-07T08:49:55.405Z,8.80
2017-11-07T08:54:57.954Z,8.80
2017-11-07T09:00:00.581Z,8.90
2017-11-07T09:05:03.169Z,9.10
2017-11-07T09:10:05.757Z,9.20
2017-11-07T09:15:08.429Z,9.40
2017-11-07T09:20:11.035Z,9.50
2017-11-07T09:25:13.603Z,9.60
2017-11-07T09:30:16.144Z,9.70
2017-11-07T09:35:18.704Z,9.90
2017-11-07T09:40:21.266Z,9.90
2017-11-07T09:45:23.853Z,10.10
2017-11-07T09:50:27.178Z,10.10
2017-11-07T09:55:29.740Z,10.20
2017-11-07T10:00:32.290Z,10.20
2017-11-07T10:05:34.857Z,10.30
2017-11-07T10:10:37.428Z,10.30
2017-11-07T10:15:39.980Z,10.40
2017-11-07T10:20:42.575Z,10.50
2017-11-07T10:25:45.150Z,10.50
2017-11-07T10:30:47.711Z,10.60
2017-11-07T10:35:50.308Z,10.70
2017-11-07T10:40:52.897Z,10.70
2017-11-07T10:45:55.456Z,10.80
2017-11-07T10:50:58.047Z,10.90
2017-11-07T10:56:00.609Z,10.90
2017-11-07T11:01:03.943Z,10.90
2017-11-07T11:06:06.515Z,10.90
2017-11-07T11:11:09.073Z,11.00
2017-11-07T11:16:11.648Z,11.00
2017-11-07T11:21:14.229Z,11.00
2017-11-07T11:26:17.563Z,11.10
2017-11-07T11:31:20.200Z,11.10
2017-11-07T11:36:22.795Z,11.20
2017-11-07T11:41:25.364Z,11.30
2017-11-07T11:46:27.940Z,11.30
2017-11-07T11:51:31.279Z,11.30
2017-11-07T11:56:33.839Z,11.30
2017-11-07T12:01:36.405Z,11.30
2017-11-07T12:06:38.966Z,11.30
2017-11-07T12:11:41.582Z,11.40
2017-11-07T12:16:44.139Z,11.50
2017-11-07T12:21:46.711Z,11.60
2017-11-07T12:26:49.286Z,11.60
2017-11-07T12:31:51.872Z,11.60
2017-11-07T12:36:54.444Z,11.60
2017-11-07T12:41:57.009Z,11.70
2017-11-07T12:46:59.560Z,11.70
2017-11-07T12:52:02.104Z,11.70
2017-11-07T12:57:04.687Z,11.60
2017-11-07T13:02:07.232Z,11.60
2017-11-07T13:07:09.797Z,11.60
2017-11-07T13:12:12.373Z,11.60
2017-11-07T13:17:14.941Z,11.60
2017-11-07T13:22:17.510Z,11.60
2017-11-07T13:27:20.059Z,11.60
2017-11-07T13:32:22.622Z,11.50
2017-11-07T13:37:25.192Z,11.40
2017-11-07T13:42:27.790Z,11.40
2017-11-07T13:47:30.359Z,11.40
2017-11-07T13:52:32.920Z,11.30
2017-11-07T13:57:35.487Z,11.30
2017-11-07T14:02:38.152Z,11.20
2017-11-07T14:07:40.716Z,11.20
2017-11-07T14:12:43.292Z,11.20
2017-11-07T14:17:45.875Z,11.20
2017-11-07T14:22:48.438Z,11.10
2017-11-07T14:27:51.014Z,11.10
2017-11-07T14:32:53.612Z,11.10
2017-11-07T14:37:56.185Z,11.00
2017-11-07T14:42:58.740Z,10.90
2017-11-07T14:48:01.303Z,10.90
2017-11-07T14:53:03.862Z,10.80
2017-11-07T14:58:07.188Z,10.70
2017-11-07T15:03:09.737Z,10.70
2017-11-07T15:08:12.330Z,10.60
2017-11-07T15:13:14.925Z,10.50
2017-11-07T15:18:17.476Z,10.50
2017-11-07T15:23:20.810Z,10.30
2017-11-07T15:28:23.489Z,10.30
2017-11-07T15:33:26.230Z,10.20
2017-11-07T15:38:28.773Z,10.10
2017-11-07T15:43:31.337Z,10.00
2017-11-07T15:48:33.916Z,10.00
2017-11-07T15:53:36.472Z,9.90
2017-11-07T15:58:39.028Z,9.80
2017-11-07T16:03:41.690Z,9.70
2017-11-07T16:08:44.275Z,9.60
2017-11-07T16:13:46.821Z,9.50
2017-11-07T16:18:49.393Z,9.40
2017-11-07T16:23:51.992Z,9.40
2017-11-07T16:28:55.364Z,9.20
2017-11-07T16:33:57.958Z,9.20
2017-11-07T16:39:00.535Z,9.20
2017-11-07T16:44:03.092Z,9.10
2017-11-07T16:49:05.677Z,9.00
2017-11-07T16:54:08.244Z,9.00
2017-11-07T16:59:11.345Z,8.90
2017-11-07T17:04:13.914Z,8.90
2017-11-07T17:09:16.455Z,8.80
2017-11-07T17:14:19.007Z,8.80
2017-11-07T17:19:21.586Z,8.70
2017-11-07T17:24:24.229Z,8.70
2017-11-07T17:29:27.597Z,8.60
2017-11-07T17:34:30.173Z,8.60
2017-11-07T17:39:32.788Z,8.60
2017-11-07T17:44:36.104Z,8.60
2017-11-07T17:49:38.731Z,8.50
2017-11-07T17:54:41.384Z,8.50
2017-11-07T17:59:44.149Z,8.50
2017-11-07T18:04:46.724Z,8.50
2017-11-07T18:09:49.308Z,8.50
2017-11-07T18:14:51.856Z,8.50
2017-11-07T18:19:54.478Z,8.40
2017-11-07T18:24:57.069Z,8.40
2017-11-07T18:29:59.770Z,8.40
2017-11-07T18:35:03.203Z,8.40
2017-11-07T18:40:05.892Z,8.30
2017-11-07T18:45:09.302Z,8.30
2017-11-07T18:50:12.868Z,8.30
2017-11-07T18:55:15.578Z,8.30
2017-11-07T19:00:18.273Z,8.20
2017-11-07T19:05:20.877Z,8.20
2017-11-07T19:10:23.452Z,8.10
2017-11-07T19:15:26.111Z,8.10
2017-11-07T19:20:28.684Z,8.10
2017-11-07T19:25:32.026Z,8.00
2017-11-07T19:30:34.644Z,8.00
2017-11-07T19:35:37.269Z,7.90
2017-11-07T19:40:40.631Z,7.90
2017-11-07T19:45:43.342Z,7.80
2017-11-07T19:50:46.006Z,7.80
2017-11-07T19:55:48.711Z,7.80
2017-11-07T20:00:51.417Z,7.70
2017-11-07T20:05:54.000Z,7.70
2017-11-07T20:10:57.370Z,7.50
2017-11-07T20:16:00.004Z,7.50
2017-11-07T20:21:02.580Z,7.50
2017-11-07T20:26:05.188Z,7.40
2017-11-07T20:31:07.814Z,7.40
2017-11-07T20:36:11.182Z,7.20
2017-11-07T20:41:13.811Z,7.20
2017-11-07T20:46:16.405Z,7.20
2017-11-07T20:51:19.006Z,7.10
2017-11-07T20:56:21.636Z,7.10
2017-11-07T21:01:24.258Z,7.00
2017-11-07T21:06:26.832Z,7.00
2017-11-07T21:11:29.450Z,6.90
2017-11-07T21:16:32.809Z,6.80
2017-11-07T21:21:38.268Z,6.80
2017-11-07T21:26:40.845Z,6.80
2017-11-07T21:31:43.438Z,6.70
2017-11-07T21:36:46.016Z,6.70
2017-11-07T21:41:48.665Z,6.60
2017-11-07T21:46:51.241Z,6.60
2017-11-07T21:51:53.869Z,6.60
2017-11-07T21:56:56.442Z,6.50
2017-11-07T22:01:59.122Z,6.50
2017-11-07T22:07:01.703Z,6.40
2017-11-07T22:12:04.315Z,6.40
2017-11-07T22:17:09.884Z,6.40
2017-11-07T22:22:13.250Z,6.30
2017-11-07T22:27:15.817Z,6.30
2017-11-07T22:32:18.383Z,6.20
2017-11-07T22:37:20.987Z,6.20
2017-11-07T22:42:23.597Z,6.10
2017-11-07T22:47:26.229Z,6.10
2017-11-07T22:52:29.592Z,6.00
2017-11-07T22:57:32.179Z,6.00
2017-11-07T23:02:34.720Z,5.90
2017-11-07T23:07:37.307Z,5.90
2017-11-07T23:12:40.040Z,5.90
2017-11-07T23:17:42.588Z,5.80
2017-11-07T23:22:45.154Z,5.80
2017-11-07T23:27:48.529Z,5.70
2017-11-07T23:32:51.073Z,5.70
2017-11-07T23:37:53.619Z,5.70
2017-11-07T23:42:56.201Z,5.70
2017-11-07T23:47:58.782Z,5.70
2017-11-07T23:53:01.333Z,5.70
2017-11-07T23:58:03.894Z,5.60
